createdAt,value
2022-08-01T00:00:47.981Z,46.00
2022-08-01T00:03:21.199Z,45.95
2022-08-01T00:06:01.827Z,45.99
2022-08-01T00:08:35.201Z,46.06
2022-08-01T00:11:10.234Z,45.72
2022-08-01T00:13:43.511Z,45.76
2022-08-01T00:16:17.452Z,45.98
2022-08-01T00:18:50.741Z,45.84
2022-08-01T00:21:24.201Z,45.74
2022-08-01T00:23:57.393Z,46.06
2022-08-01T00:26:30.683Z,46.59
2022-08-01T00:29:03.809Z,46.87
2022-08-01T00:31:38.713Z,46.87
2022-08-01T00:34:12.006Z,46.87
2022-08-01T00:36:45.271Z,46.68
2022-08-01T00:39:18.563Z,46.51
2022-08-01T00:41:59.820Z,46.23
2022-08-01T00:44:27.008Z,46.04
2022-08-01T00:47:00.324Z,45.62
2022-08-01T00:49:33.890Z,45.70
2022-08-01T00:52:08.778Z,45.67
2022-08-01T00:54:43.052Z,46.11
2022-08-01T00:57:16.290Z,46.30
2022-08-01T00:59:51.507Z,46.25
2022-08-01T01:02:25.967Z,45.99
2022-08-01T01:05:00.139Z,45.88
2022-08-01T01:07:38.646Z,45.98
2022-08-01T01:10:16.835Z,46.12
2022-08-01T01:12:54.037Z,46.41
2022-08-01T01:15:30.797Z,46.75
2022-08-01T01:18:07.324Z,47.12
2022-08-01T01:20:43.038Z,47.86
2022-08-01T01:23:39.705Z,47.63
2022-08-01T01:26:22.183Z,47.90
2022-08-01T01:29:13.249Z,47.76
2022-08-01T01:31:50.710Z,47.67
2022-08-01T01:34:26.220Z,47.70
2022-08-01T01:37:02.018Z,47.84
2022-08-01T01:39:37.909Z,48.09
2022-08-01T01:42:11.918Z,47.96
2022-08-01T01:44:48.793Z,48.23
2022-08-01T01:47:22.779Z,48.26
2022-08-01T01:49:59.109Z,48.35
2022-08-01T01:52:36.418Z,48.32
2022-08-01T01:55:11.561Z,48.53
2022-08-01T01:57:46.913Z,48.60
2022-08-01T02:00:20.837Z,48.72
2022-08-01T02:02:56.606Z,48.87
2022-08-01T02:05:31.134Z,48.53
2022-08-01T02:08:06.216Z,48.47
2022-08-01T02:10:45.322Z,48.55
2022-08-01T02:13:20.333Z,48.35
2022-08-01T02:15:59.475Z,48.46
2022-08-01T02:18:30.043Z,48.44
2022-08-01T02:21:06.017Z,48.32
2022-08-01T02:23:41.438Z,48.41
2022-08-01T02:26:18.542Z,48.18
2022-08-01T02:28:55.643Z,48.30
2022-08-01T02:31:31.084Z,48.28
2022-08-01T02:34:06.944Z,48.33
2022-08-01T02:36:40.910Z,48.24
2022-08-01T02:39:16.577Z,48.40
2022-08-01T02:41:52.479Z,48.59
2022-08-01T02:44:29.278Z,48.35
2022-08-01T02:47:05.949Z,47.95
2022-08-01T02:49:42.527Z,47.82
2022-08-01T02:52:20.646Z,48.05
2022-08-01T02:54:57.893Z,47.77
2022-08-01T02:57:41.500Z,47.74
2022-08-01T03:00:09.457Z,47.38
2022-08-01T03:02:45.148Z,47.46
2022-08-01T03:05:22.394Z,47.11
2022-08-01T03:08:02.507Z,47.12
2022-08-01T03:10:35.258Z,46.59
2022-08-01T03:13:11.214Z,46.86
2022-08-01T03:15:46.416Z,47.17
2022-08-01T03:18:22.958Z,46.95
2022-08-01T03:20:58.958Z,46.82
2022-08-01T03:23:39.116Z,46.77
2022-08-01T03:26:13.539Z,46.76
2022-08-01T03:28:49.028Z,46.56
2022-08-01T03:31:23.017Z,46.75
2022-08-01T03:33:56.539Z,46.70
2022-08-01T03:36:32.738Z,46.77
2022-08-01T03:39:08.962Z,46.86
2022-08-01T03:41:45.500Z,46.82
2022-08-01T03:44:21.493Z,46.88
2022-08-01T03:46:58.810Z,46.81
2022-08-01T03:49:35.732Z,46.84
2022-08-01T03:52:13.742Z,46.94
2022-08-01T03:54:50.232Z,46.76
2022-08-01T03:57:36.294Z,46.79
2022-08-01T04:00:00.835Z,47.02
2022-08-01T04:02:35.042Z,47.14
2022-08-01T04:05:10.773Z,47.48
2022-08-01T04:07:45.764Z,47.37
2022-08-01T04:10:19.128Z,47.56
2022-08-01T04:12:52.472Z,47.31
2022-08-01T04:15:27.845Z,47.29
2022-08-01T04:18:01.618Z,47.18
2022-08-01T04:20:34.991Z,47.27
2022-08-01T04:23:10.903Z,47.47
2022-08-01T04:25:47.323Z,47.26
2022-08-01T04:28:22.101Z,47.43
2022-08-01T04:31:01.799Z,47.37
2022-08-01T04:33:36.919Z,46.95
2022-08-01T04:36:13.023Z,46.60
2022-08-01T04:38:48.254Z,46.60
2022-08-01T04:41:23.315Z,46.74
2022-08-01T04:43:56.915Z,46.90
2022-08-01T04:46:32.218Z,46.77
2022-08-01T04:49:10.123Z,46.49
2022-08-01T04:51:55.544Z,46.54
2022-08-01T04:54:30.905Z,44.54
2022-08-01T04:57:04.939Z,46.05
2022-08-01T04:59:44.020Z,45.91
2022-08-01T05:02:19.388Z,45.84
2022-08-01T05:04:53.410Z,45.50
2022-08-01T05:07:27.044Z,45.34
2022-08-01T05:10:02.192Z,45.55
2022-08-01T05:12:37.569Z,45.12
2022-08-01T05:15:15.456Z,44.69
2022-08-01T05:17:48.162Z,44.55
2022-08-01T05:20:21.593Z,44.74
2022-08-01T05:22:54.889Z,44.49
2022-08-01T05:25:57.787Z,44.41
2022-08-01T05:28:04.660Z,43.71
2022-08-01T05:30:38.013Z,43.74
2022-08-01T05:33:11.697Z,43.72
2022-08-01T05:35:48.277Z,43.60
2022-08-01T05:38:20.966Z,42.75
2022-08-01T05:40:56.416Z,42.66
2022-08-01T05:43:29.654Z,42.94
2022-08-01T05:46:03.323Z,42.70
2022-08-01T05:48:36.613Z,42.67
2022-08-01T05:51:15.504Z,42.42
2022-08-01T05:53:49.579Z,42.26
2022-08-01T05:56:23.550Z,42.10
2022-08-01T05:58:58.099Z,41.98
2022-08-01T06:01:34.585Z,40.76
2022-08-01T06:04:08.451Z,40.72
2022-08-01T06:06:43.893Z,40.81
2022-08-01T06:09:17.448Z,40.73
2022-08-01T06:11:57.391Z,40.00
2022-08-01T06:14:33.714Z,39.94
2022-08-01T06:17:21.462Z,39.61
2022-08-01T06:19:54.491Z,39.44
2022-08-01T06:22:30.357Z,39.35
2022-08-01T06:25:05.062Z,38.04
2022-08-01T06:27:39.195Z,38.37
2022-08-01T06:30:13.812Z,38.07
2022-08-01T06:32:47.103Z,38.18
2022-08-01T06:35:23.815Z,38.16
2022-08-01T06:37:57.036Z,37.66
2022-08-01T06:40:34.377Z,37.69
2022-08-01T06:43:11.396Z,37.34
2022-08-01T06:45:47.145Z,37.06
2022-08-01T06:48:20.715Z,36.90
2022-08-01T06:50:56.594Z,36.49
2022-08-01T06:53:32.649Z,36.01
2022-08-01T06:56:05.230Z,36.21
2022-08-01T06:58:38.753Z,35.70
2022-08-01T07:01:13.306Z,35.00
2022-08-01T07:03:54.328Z,33.83
2022-08-01T07:06:28.477Z,32.83
2022-08-01T07:09:08.458Z,31.76
2022-08-01T07:11:38.338Z,30.18
2022-08-01T07:14:12.914Z,28.80
2022-08-01T07:16:46.604Z,26.26
2022-08-01T07:19:22.030Z,26.16
2022-08-01T07:21:55.605Z,26.32
2022-08-01T07:24:30.306Z,24.86
2022-08-01T07:27:23.899Z,23.95
2022-08-01T07:29:59.140Z,24.32
2022-08-01T07:32:36.001Z,23.87
2022-08-01T07:35:11.029Z,23.66
2022-08-01T07:37:48.592Z,23.24
2022-08-01T07:40:20.058Z,22.71
2022-08-01T07:42:54.055Z,23.34
2022-08-01T07:46:13.553Z,22.40
2022-08-01T07:48:42.343Z,22.75
2022-08-01T07:51:15.769Z,21.66
2022-08-01T07:53:49.169Z,20.87
2022-08-01T07:56:24.161Z,21.03
2022-08-01T07:58:57.773Z,21.78
2022-08-01T08:01:31.331Z,21.70
2022-08-01T08:04:04.757Z,21.60
2022-08-01T08:06:38.130Z,21.33
2022-08-01T08:09:11.546Z,20.78
2022-08-01T08:11:48.183Z,20.09
2022-08-01T08:14:32.302Z,18.81
2022-08-01T08:16:59.134Z,18.64
2022-08-01T08:19:38.006Z,18.26
2022-08-01T08:22:12.167Z,17.58
2022-08-01T08:24:47.074Z,18.97
2022-08-01T08:27:20.809Z,20.26
2022-08-01T08:30:02.352Z,21.15
2022-08-01T08:32:50.622Z,21.40
2022-08-01T08:35:40.304Z,20.89
2022-08-01T08:37:59.673Z,20.87
2022-08-01T08:40:34.700Z,20.14
2022-08-01T08:43:09.448Z,20.05
2022-08-01T08:45:59.817Z,19.07
2022-08-01T08:48:18.947Z,17.97
2022-08-01T08:50:54.732Z,20.46
2022-08-01T08:53:34.712Z,22.52
2022-08-01T08:56:08.475Z,21.80
2022-08-01T08:58:43.597Z,22.39
2022-08-01T09:01:18.766Z,20.84
2022-08-01T09:03:52.509Z,18.87
2022-08-01T09:06:25.912Z,19.12
2022-08-01T09:09:01.512Z,18.23
2022-08-01T09:14:21.809Z,17.93
2022-08-01T09:17:06.798Z,18.69
2022-08-01T09:19:42.197Z,19.33
2022-08-01T09:22:19.373Z,20.51
2022-08-01T09:25:04.705Z,20.74
2022-08-01T09:27:44.124Z,20.07
2022-08-01T09:30:23.531Z,18.54
2022-08-01T09:33:06.269Z,16.64
2022-08-01T09:35:43.767Z,15.40
2022-08-01T09:38:18.017Z,18.92
2022-08-01T09:40:58.643Z,15.69
2022-08-01T09:43:37.660Z,14.92
2022-08-01T09:46:14.158Z,14.83
2022-08-01T09:49:07.464Z,14.84
2022-08-01T09:51:59.422Z,16.14
2022-08-01T09:54:21.261Z,15.35
2022-08-01T09:57:16.729Z,16.84
2022-08-01T10:00:00.753Z,14.63
2022-08-01T10:02:37.143Z,16.10
2022-08-01T10:05:20.818Z,18.03
2022-08-01T10:08:00.841Z,18.25
2022-08-01T10:10:37.483Z,16.71
2022-08-01T10:13:13.282Z,16.30
2022-08-01T10:15:49.489Z,15.37
2022-08-01T10:18:26.267Z,14.85
2022-08-01T10:21:03.032Z,14.13
2022-08-01T10:23:41.402Z,13.22
2022-08-01T10:26:16.370Z,12.14
2022-08-01T10:28:52.250Z,11.83
2022-08-01T10:31:32.410Z,11.71
2022-08-01T10:34:08.140Z,11.25
2022-08-01T10:36:41.247Z,11.26
2022-08-01T10:39:20.036Z,14.21
2022-08-01T10:41:51.040Z,10.07
2022-08-01T10:44:28.618Z,12.80
2022-08-01T10:47:10.113Z,10.76
2022-08-01T10:49:46.380Z,10.53
2022-08-01T10:52:22.340Z,11.39
2022-08-01T10:55:03.536Z,12.30
2022-08-01T10:57:52.686Z,15.12
2022-08-01T11:00:24.106Z,13.50
2022-08-01T11:03:04.605Z,14.98
2022-08-01T11:05:38.782Z,16.27
2022-08-01T11:08:16.148Z,17.14
2022-08-01T11:10:49.800Z,17.04
2022-08-01T11:13:58.499Z,16.83
2022-08-01T11:16:37.367Z,16.89
2022-08-01T11:19:12.025Z,17.37
2022-08-01T11:22:05.450Z,18.12
2022-08-01T11:24:59.292Z,18.33
2022-08-01T11:27:35.422Z,18.60
2022-08-01T11:30:30.860Z,18.62
2022-08-01T11:33:11.019Z,19.09
2022-08-01T11:35:40.394Z,19.52
2022-08-01T11:38:29.591Z,20.19
2022-08-01T11:41:15.642Z,20.50
2022-08-01T11:44:02.921Z,20.96
2022-08-01T11:46:51.953Z,20.27
2022-08-01T11:49:35.464Z,19.43
2022-08-01T11:52:11.322Z,17.68
2022-08-01T11:54:47.853Z,16.85
2022-08-01T11:57:24.442Z,16.23
2022-08-01T12:00:03.675Z,15.81
2022-08-01T12:02:37.987Z,15.34
2022-08-01T12:05:14.341Z,15.01
2022-08-01T12:07:53.416Z,16.02
2022-08-01T12:10:33.960Z,16.99
2022-08-01T12:13:09.558Z,17.71
2022-08-01T12:15:44.745Z,18.64
2022-08-01T12:18:18.291Z,19.24
2022-08-01T12:20:57.156Z,19.67
2022-08-01T12:23:26.742Z,20.11
2022-08-01T12:26:01.363Z,20.48
2022-08-01T12:28:42.461Z,21.01
2022-08-01T12:31:15.690Z,21.35
2022-08-01T12:33:49.128Z,22.04
2022-08-01T12:36:32.401Z,22.19
2022-08-01T12:39:06.192Z,22.27
2022-08-01T12:41:40.246Z,22.34
2022-08-01T12:44:17.998Z,22.44
2022-08-01T12:46:51.468Z,22.05
2022-08-01T12:49:27.800Z,21.98
2022-08-01T12:52:01.442Z,22.45
2022-08-01T12:54:56.683Z,22.55
2022-08-01T12:57:30.125Z,22.81
2022-08-01T13:00:16.173Z,22.70
2022-08-01T13:02:50.560Z,22.93
2022-08-01T13:05:26.843Z,22.59
2022-08-01T13:08:04.373Z,22.57
2022-08-01T13:10:36.425Z,22.65
2022-08-01T13:13:11.107Z,22.39
2022-08-01T13:15:47.171Z,21.93
2022-08-01T13:18:31.617Z,20.25
2022-08-01T13:21:18.971Z,20.29
2022-08-01T13:24:08.229Z,20.96
2022-08-01T13:26:46.758Z,21.62
2022-08-01T13:29:21.404Z,22.16
2022-08-01T13:31:54.712Z,22.83
2022-08-01T13:34:34.988Z,23.18
2022-08-01T13:37:08.995Z,23.22
2022-08-01T13:39:45.290Z,23.05
2022-08-01T13:42:19.926Z,22.85
2022-08-01T13:44:54.652Z,22.90
2022-08-01T13:47:31.729Z,23.08
2022-08-01T13:50:04.285Z,22.82
2022-08-01T13:52:37.705Z,23.87
2022-08-01T13:55:11.991Z,22.93
2022-08-01T13:57:46.358Z,22.15
2022-08-01T14:00:20.319Z,20.74
2022-08-01T14:02:53.907Z,20.26
2022-08-01T14:05:27.191Z,20.40
2022-08-01T14:08:00.522Z,20.63
2022-08-01T14:10:34.733Z,20.96
2022-08-01T14:13:11.772Z,21.19
2022-08-01T14:15:50.331Z,20.46
2022-08-01T14:18:23.503Z,19.93
2022-08-01T14:21:05.271Z,20.33
2022-08-01T14:23:36.523Z,21.02
2022-08-01T14:26:12.784Z,21.36
2022-08-01T14:28:46.152Z,21.92
2022-08-01T14:31:19.432Z,22.05
2022-08-01T14:33:52.865Z,22.01
2022-08-01T14:36:30.811Z,22.44
2022-08-01T14:39:01.571Z,22.97
2022-08-01T14:41:35.033Z,23.78
2022-08-01T14:44:10.121Z,24.07
2022-08-01T14:46:57.731Z,23.58
2022-08-01T14:49:20.847Z,23.10
2022-08-01T14:51:55.455Z,22.24
2022-08-01T14:54:29.478Z,21.85
2022-08-01T14:57:02.966Z,21.80
2022-08-01T14:59:37.123Z,22.66
2022-08-01T15:02:12.925Z,23.37
2022-08-01T15:04:46.557Z,23.98
2022-08-01T15:07:21.619Z,24.50
2022-08-01T15:09:55.971Z,24.63
2022-08-01T15:12:44.505Z,24.84
2022-08-01T15:15:05.099Z,24.80
2022-08-01T15:17:39.814Z,24.74
2022-08-01T15:20:14.311Z,24.34
2022-08-01T15:22:49.241Z,24.12
2022-08-01T15:25:24.954Z,23.93
2022-08-01T15:28:01.522Z,23.95
2022-08-01T15:30:44.783Z,24.58
2022-08-01T15:33:20.728Z,25.14
2022-08-01T15:35:56.409Z,25.63
2022-08-01T15:38:37.167Z,25.92
2022-08-01T15:41:11.619Z,26.29
2022-08-01T15:43:46.347Z,26.46
2022-08-01T15:46:24.380Z,26.63
2022-08-01T15:48:58.957Z,26.59
2022-08-01T15:51:37.513Z,26.35
2022-08-01T15:54:14.756Z,26.25
2022-08-01T15:56:51.608Z,26.39
2022-08-01T15:59:23.736Z,26.61
2022-08-01T16:01:56.943Z,25.94
2022-08-01T16:04:31.499Z,27.10
2022-08-01T16:07:06.369Z,27.56
2022-08-01T16:09:42.754Z,28.12
2022-08-01T16:12:16.823Z,28.09
2022-08-01T16:14:50.618Z,28.41
2022-08-01T16:17:24.121Z,28.80
2022-08-01T16:19:57.414Z,29.06
2022-08-01T16:22:30.930Z,29.21
2022-08-01T16:25:06.040Z,29.22
2022-08-01T16:27:39.389Z,29.44
2022-08-01T16:30:14.145Z,29.51
2022-08-01T16:32:52.090Z,29.85
2022-08-01T16:35:24.450Z,29.93
2022-08-01T16:37:57.847Z,29.99
2022-08-01T16:40:31.148Z,30.12
2022-08-01T16:43:08.898Z,30.30
2022-08-01T16:45:45.807Z,30.49
2022-08-01T16:48:24.546Z,30.61
2022-08-01T16:51:04.764Z,30.71
2022-08-01T16:53:39.031Z,30.63
2022-08-01T16:56:16.731Z,30.66
2022-08-01T16:58:51.993Z,30.67
2022-08-01T17:04:19.397Z,30.96
2022-08-01T17:07:02.156Z,31.06
2022-08-01T17:09:39.888Z,31.15
2022-08-01T17:15:09.921Z,31.21
2022-08-01T17:17:54.445Z,31.47
2022-08-01T17:20:31.095Z,31.34
2022-08-01T17:23:05.778Z,31.53
2022-08-01T17:28:34.713Z,31.61
2022-08-01T17:31:17.612Z,31.62
2022-08-01T17:33:59.426Z,31.96
2022-08-01T17:36:37.390Z,32.29
2022-08-01T17:39:23.490Z,32.42
2022-08-01T17:42:11.348Z,32.71
2022-08-01T17:44:58.836Z,32.59
2022-08-01T17:47:50.479Z,32.46
2022-08-01T17:50:14.027Z,32.58
2022-08-01T17:52:51.931Z,32.67
2022-08-01T17:55:55.657Z,32.66
2022-08-01T17:58:04.248Z,32.72
2022-08-01T18:00:45.138Z,32.70
2022-08-01T18:06:24.348Z,32.92
2022-08-01T18:09:09.556Z,33.08
2022-08-01T18:14:40.702Z,33.69
2022-08-01T18:17:33.071Z,34.34
2022-08-01T18:25:58.781Z,35.20
2022-08-01T18:28:38.012Z,35.11
2022-08-01T18:31:11.378Z,35.39
2022-08-01T18:33:49.261Z,35.25
2022-08-01T18:36:32.263Z,35.79
2022-08-01T18:41:48.309Z,35.45
2022-08-01T18:44:25.528Z,36.02
2022-08-01T18:47:01.022Z,35.93
2022-08-01T18:49:35.789Z,36.08
2022-08-01T18:52:12.122Z,36.21
2022-08-01T18:57:42.822Z,35.98
2022-08-01T19:00:18.387Z,36.04
2022-08-01T19:02:53.917Z,35.98
2022-08-01T19:05:29.059Z,36.09
2022-08-01T19:08:10.628Z,35.91
2022-08-01T19:10:46.837Z,35.59
2022-08-01T19:13:40.173Z,35.90
2022-08-01T19:16:32.499Z,35.80
2022-08-01T19:22:02.203Z,35.66
2022-08-01T19:24:40.424Z,35.77
2022-08-01T19:27:20.599Z,36.05
2022-08-01T19:30:00.536Z,36.08
2022-08-01T19:35:36.770Z,36.52
2022-08-01T19:38:13.408Z,36.38
2022-08-01T19:40:50.504Z,36.37
2022-08-01T19:43:24.153Z,36.50
2022-08-01T19:46:03.259Z,36.58
2022-08-01T19:48:39.574Z,36.73
2022-08-01T19:51:22.277Z,36.97
2022-08-01T19:53:58.761Z,36.69
2022-08-01T19:56:39.285Z,37.20
2022-08-01T19:59:23.477Z,37.68
2022-08-01T20:02:03.449Z,38.02
2022-08-01T20:04:42.421Z,37.88
2022-08-01T20:07:23.777Z,37.72
2022-08-01T20:09:59.595Z,37.58
2022-08-01T20:12:55.401Z,37.76
2022-08-01T20:15:45.848Z,37.67
2022-08-01T20:18:21.597Z,37.59
2022-08-01T20:20:57.501Z,37.68
2022-08-01T20:26:26.115Z,38.25
2022-08-01T20:29:03.157Z,38.23
2022-08-01T20:31:43.011Z,38.57
2022-08-01T20:34:17.284Z,38.79
2022-08-01T20:36:54.709Z,38.94
2022-08-01T20:39:29.855Z,39.00
2022-08-01T20:42:05.023Z,39.28
2022-08-01T20:44:40.490Z,39.33
2022-08-01T20:47:14.481Z,39.51
2022-08-01T20:49:48.075Z,39.45
2022-08-01T20:52:22.978Z,39.54
2022-08-01T20:54:57.736Z,39.53
2022-08-01T20:57:33.995Z,39.48
2022-08-01T21:00:10.116Z,39.24
2022-08-01T21:02:48.939Z,39.44
2022-08-01T21:05:29.483Z,39.68
2022-08-01T21:08:05.891Z,39.69
2022-08-01T21:10:41.178Z,39.61
2022-08-01T21:13:20.984Z,39.88
2022-08-01T21:16:23.069Z,39.99
2022-08-01T21:18:34.965Z,39.97
2022-08-01T21:21:08.375Z,36.50
2022-08-01T21:23:46.750Z,35.72
2022-08-01T21:26:22.182Z,38.94
2022-08-01T21:28:59.344Z,39.63
2022-08-01T21:31:40.368Z,39.83
2022-08-01T21:37:10.978Z,38.61
2022-08-01T21:39:46.755Z,40.25
2022-08-01T21:42:25.796Z,40.29
2022-08-01T21:45:01.573Z,40.07
2022-08-01T21:47:37.134Z,40.15
2022-08-01T21:50:11.269Z,40.42
2022-08-01T21:52:47.537Z,40.68
2022-08-01T21:55:35.723Z,40.95
2022-08-01T21:58:16.568Z,41.19
2022-08-01T22:00:53.257Z,41.15
2022-08-01T22:03:28.739Z,41.00
2022-08-01T22:06:03.635Z,41.32
2022-08-01T22:08:39.369Z,41.23
2022-08-01T22:11:15.408Z,41.19
2022-08-01T22:13:48.516Z,41.34
2022-08-01T22:16:22.620Z,41.17
2022-08-01T22:18:56.969Z,41.31
2022-08-01T22:21:31.355Z,41.09
2022-08-01T22:24:06.459Z,41.28
2022-08-01T22:26:41.927Z,41.56
2022-08-01T22:29:18.464Z,41.99
2022-08-01T22:31:54.924Z,41.63
2022-08-01T22:34:28.143Z,41.40
2022-08-01T22:37:01.760Z,41.36
2022-08-01T22:39:38.355Z,41.53
2022-08-01T22:42:12.731Z,41.79
2022-08-01T22:44:52.060Z,41.53
2022-08-01T22:47:31.158Z,41.38
2022-08-01T22:50:06.912Z,41.39
2022-08-01T22:55:26.009Z,40.79
2022-08-01T22:58:03.605Z,41.57
2022-08-01T23:00:39.069Z,41.40
2022-08-01T23:03:15.837Z,41.57
2022-08-01T23:05:52.762Z,41.38
2022-08-01T23:08:27.083Z,41.28
2022-08-01T23:11:02.396Z,41.24
2022-08-01T23:13:35.819Z,41.39
2022-08-01T23:16:09.235Z,41.38
2022-08-01T23:18:44.510Z,41.40
2022-08-01T23:21:20.577Z,41.38
2022-08-01T23:23:55.330Z,41.18
2022-08-01T23:26:30.509Z,41.34
2022-08-01T23:29:03.749Z,41.34
2022-08-01T23:32:00.657Z,41.37
2022-08-01T23:34:15.403Z,41.40
2022-08-01T23:36:46.722Z,41.58
2022-08-01T23:39:19.985Z,41.83
2022-08-01T23:42:07.700Z,42.22
2022-08-01T23:44:27.989Z,42.24
2022-08-01T23:47:01.352Z,42.39
2022-08-01T23:49:34.941Z,42.74
2022-08-01T23:52:10.080Z,43.00
2022-08-01T23:54:43.859Z,42.60
2022-08-01T23:57:18.294Z,42.27
2022-08-01T23:59:52.969Z,42.45
